Hlavní strana
METAR-TAF:

METAR-TAF

Letiště :

Kugluktuk, Nunavut, Kanada

zeměpisná šířka: 67-49N, zeměpisná délka: 115-08W, výška: 22 m

Aktuální stav počasí

Zpráva byla vytvořena před 35 minutami, v 17:33 UTC
Východojihovýchodní vítr 9 kt s nárazy do 16 kt
Teplota -12°C
Vlhkost vzduchu 72%
Tlak 1003 hPa
Viditelnost: 24.1 km
Skoro jasno ve výšce 600 ft
Zataženo ve výšce 7500 ft

METAR: CYCO 171733Z 11009G16KT 15SM FEW006 OVC075 M12/M16 A2963 RMK SF1AC8 SF TR SLP037

Čas: 11:08 (18:08 UTC)

Předpověď počasí

Zpráva byla vytvořena před 23 minutami, v 17:45 UTC
Předpověď platná od 17 v 17 UTC do 18 v 01 UTC
Východojihovýchodní vítr 15 kt
Viditelnost: 10 km
Polojasno ve výšce 2000 ft
Zataženo ve výšce 8000 ft
Dočasný
od 17 v 17 UTC do 18 v 01 UTC
Viditelnost: 6.4 km
Oblačno až skoro zataženo ve výšce 2000 ft
Zataženo ve výšce 8000 ft
slabé sněžení

TAF: CYCO 171745Z 1717/1801 12015KT P6SM SCT020 OVC080 TEMPO 1717/1801 4SM -SN BKN020 OVC080 RMK NXT FCST BY 171900Z

Stav a předpovědi počasí z více než 4 000 letišť (zprávy METAR a TAF).

Červené a žluté tečky na mapě představují dostupné meteorologické stanice.

Když kurzor umístíte na tečku, zobrazí se název stanice.

Pak kliknutím zobrazíte stav a předpověď počasí.

Chcete-li změnit mapu, kliknutím na zelené tlačítko se znaménkem +mapu přiblížíte, kliknutím na zelené tlačítko se znaménkem – mapu oddálíte a kliknutím na zelené šipky přejdete na sousední mapy.


METAR-TAF: